Terminal Aerodrome Forecast
Issued by NWS

Home | Current Version | Previous Version | Text Only | Print | Product List | Glossary On
Versions: 1 2 3 4 5 6 7 8 9 10 11 12 13 14 15 16
000
FTUS43 KOAX 021757 CCA
TAFBFF
TAF COR
KBFF 021757Z 0218/0318 17012KT P6SM SCT080
     FM022200 14012KT P6SM BKN070
     FM030100 09008KT P6SM SCT007 BKN015
     FM030700 35017G25KT 2SM -SN BKN004 OVC010=

USA.gov is the U.S. government's official web portal to all federal, state and local government web resources and services.